Time;durP1;ratioP1;P1;durP2;ratioP2;P2;SDS_P1;SDS_P2;PMS_P1;PMS_P2;Temp;Humidity;BMP_temperature;BMP_pressure;BME280_temperature;BME280_humidity;BME280_pressure;Samples;Min_cycle;Max_cycle;Signal;HPM_P1;HPM_P2
2023/08/19 00:02:12;;;;;;;4.13;3.73;;;22.10;92.30;;;;;;5088847;28;20625;-77
2023/08/19 00:04:40;;;;;;;3.30;3.00;;;22.00;92.20;;;;;;5088737;28;20667;-78
2023/08/19 00:07:08;;;;;;;3.03;2.70;;;22.00;92.60;;;;;;5088339;28;20688;-78
2023/08/19 00:09:38;;;;;;;2.90;2.70;;;21.90;93.20;;;;;;5087322;28;20625;-78
2023/08/19 00:12:06;;;;;;;3.97;2.90;;;21.80;93.40;;;;;;5088581;28;20620;-78
2023/08/19 00:14:33;;;;;;;2.63;2.40;;;21.80;93.80;;;;;;5088897;28;20636;-78
2023/08/19 00:17:03;;;;;;;5.97;3.40;;;21.90;92.90;;;;;;5087395;28;20635;-78
2023/08/19 00:19:30;;;;;;;12.03;3.17;;;21.90;93.10;;;;;;5087321;28;21322;-78
2023/08/19 00:21:56;;;;;;;3.13;2.83;;;21.70;94.10;;;;;;5088149;28;20631;-79
2023/08/19 00:24:23;;;;;;;5.83;3.50;;;21.60;94.30;;;;;;5087203;28;20643;-79
2023/08/19 00:26:50;;;;;;;3.73;3.43;;;21.50;95.10;;;;;;5088005;28;20632;-78
2023/08/19 00:29:17;;;;;;;3.70;2.90;;;21.60;94.60;;;;;;5087354;28;21262;-79
2023/08/19 00:31:43;;;;;;;3.40;3.10;;;21.70;93.80;;;;;;5087679;28;21226;-79
2023/08/19 00:34:12;;;;;;;4.20;3.80;;;21.70;93.70;;;;;;5087844;28;20653;-79
2023/08/19 00:36:38;;;;;;;4.07;3.73;;;21.70;93.70;;;;;;5087650;28;20638;-79
2023/08/19 00:39:05;;;;;;;4.03;2.90;;;21.70;93.60;;;;;;5086885;28;20631;-79
2023/08/19 00:41:33;;;;;;;3.47;3.17;;;21.70;93.60;;;;;;5088485;28;20638;-78
2023/08/19 00:44:00;;;;;;;4.43;2.87;;;21.70;93.80;;;;;;5087343;28;20618;-79
2023/08/19 00:46:27;;;;;;;4.67;3.07;;;21.70;94.20;;;;;;5087866;28;21175;-79
2023/08/19 00:48:54;;;;;;;3.60;3.03;;;21.70;93.50;;;;;;5086440;28;21230;-79
2023/08/19 00:51:22;;;;;;;2.93;2.73;;;21.70;93.30;;;;;;5087206;28;20991;-79
2023/08/19 00:53:49;;;;;;;4.30;4.00;;;21.70;93.30;;;;;;5088136;28;20635;-79
2023/08/19 00:56:16;;;;;;;2.73;2.53;;;21.70;93.40;;;;;;5087541;28;20627;-78
2023/08/19 00:58:43;;;;;;;4.93;2.90;;;21.60;93.40;;;;;;5087679;28;20637;-79
2023/08/19 01:01:10;;;;;;;2.83;2.60;;;21.50;94.10;;;;;;5086630;28;20631;-79
2023/08/19 01:03:37;;;;;;;2.93;2.73;;;21.40;95.00;;;;;;5086920;28;20639;-78
2023/08/19 01:06:22;;;;;;;3.37;3.07;;;21.20;95.60;;;;;;5086304;28;20638;-78
2023/08/19 01:08:58;;;;;;;3.90;3.27;;;21.10;96.10;;;;;;5087140;28;21328;-78
2023/08/19 01:11:46;;;;;;;2.90;2.70;;;21.10;96.20;;;;;;5087331;28;20624;-79
2023/08/19 01:14:23;;;;;;;5.03;3.33;;;21.10;95.90;;;;;;5087603;28;20761;-79
2023/08/19 01:16:54;;;;;;;2.83;2.63;;;21.10;96.50;;;;;;5086719;28;20645;-79
2023/08/19 01:19:29;;;;;;;3.30;3.00;;;21.00;96.60;;;;;;5087369;28;20626;-79
2023/08/19 01:22:01;;;;;;;4.10;2.50;;;20.90;97.00;;;;;;5086843;28;20715;-79
2023/08/19 01:24:35;;;;;;;3.93;2.47;;;20.80;96.90;;;;;;5087522;28;21208;-79
2023/08/19 01:27:04;;;;;;;2.80;2.60;;;20.80;96.80;;;;;;5087445;28;20758;-79
2023/08/19 01:29:31;;;;;;;4.43;3.60;;;20.90;96.60;;;;;;5085878;28;20652;-79
2023/08/19 01:32:00;;;;;;;2.77;2.57;;;21.00;96.50;;;;;;5086881;28;20638;-79
2023/08/19 01:34:28;;;;;;;3.80;3.13;;;21.10;96.10;;;;;;5086148;28;20996;-79
2023/08/19 01:37:02;;;;;;;3.40;2.80;;;21.00;96.40;;;;;;5087210;28;20617;-79
2023/08/19 01:39:30;;;;;;;2.73;2.53;;;20.90;96.00;;;;;;5086879;28;20637;-80
2023/08/19 01:42:00;;;;;;;3.63;3.20;;;20.90;96.00;;;;;;5087441;28;20659;-79
2023/08/19 01:44:28;;;;;;;3.93;3.50;;;20.90;96.70;;;;;;5087207;28;20618;-78
2023/08/19 01:46:56;;;;;;;3.87;3.57;;;21.00;96.40;;;;;;5086336;28;20646;-79
2023/08/19 01:49:24;;;;;;;3.30;3.00;;;21.00;96.10;;;;;;5086453;28;20663;-79
2023/08/19 01:51:51;;;;;;;6.70;3.13;;;21.00;96.00;;;;;;5086159;28;20621;-79
2023/08/19 01:54:19;;;;;;;2.80;2.30;;;21.00;96.70;;;;;;5087030;28;20632;-78
2023/08/19 01:56:47;;;;;;;3.13;2.83;;;21.00;96.60;;;;;;5087051;28;21072;-79
2023/08/19 01:59:16;;;;;;;3.43;2.90;;;21.00;96.60;;;;;;5086548;28;20626;-79
2023/08/19 02:01:44;;;;;;;3.50;3.00;;;20.90;97.00;;;;;;5082621;28;20621;-79
2023/08/19 02:04:11;;;;;;;6.00;4.07;;;20.90;97.00;;;;;;5086458;28;20634;-79
2023/08/19 02:06:38;;;;;;;3.57;3.00;;;20.90;97.20;;;;;;5086966;28;20774;-79
2023/08/19 02:09:05;;;;;;;3.63;3.33;;;20.80;97.40;;;;;;5086367;28;20682;-79
2023/08/19 02:11:32;;;;;;;4.23;3.83;;;20.80;97.10;;;;;;5086720;28;20634;-79
2023/08/19 02:13:59;;;;;;;7.10;3.70;;;20.80;97.40;;;;;;5086551;28;20645;-79
2023/08/19 02:16:27;;;;;;;2.90;2.70;;;20.70;97.70;;;;;;5085663;28;21258;-80
2023/08/19 02:18:54;;;;;;;5.73;3.60;;;20.70;97.80;;;;;;5089843;28;20651;-79
2023/08/19 02:21:21;;;;;;;3.60;3.30;;;20.60;98.20;;;;;;5090836;28;20621;-79
2023/08/19 02:23:49;;;;;;;3.93;3.53;;;20.60;97.90;;;;;;5090954;28;20630;-79
2023/08/19 02:26:17;;;;;;;3.97;3.67;;;20.70;97.60;;;;;;5090357;28;21001;-79
2023/08/19 02:28:45;;;;;;;3.60;3.30;;;20.70;97.40;;;;;;5089920;28;21413;-78
2023/08/19 02:31:12;;;;;;;4.60;3.63;;;20.70;97.40;;;;;;5089088;28;21056;-78
2023/08/19 02:33:41;;;;;;;10.20;4.40;;;20.60;97.80;;;;;;5089738;28;21016;-79
2023/08/19 02:36:09;;;;;;;5.10;3.53;;;20.50;98.30;;;;;;5091076;28;20717;-79
2023/08/19 02:38:36;;;;;;;4.87;3.60;;;20.60;97.60;;;;;;5090649;28;20635;-79
2023/08/19 02:41:04;;;;;;;3.87;3.50;;;20.60;98.30;;;;;;5089882;28;21104;-79
2023/08/19 02:43:31;;;;;;;4.33;3.93;;;20.50;98.70;;;;;;5090407;28;20625;-78
2023/08/19 02:45:59;;;;;;;3.80;3.27;;;20.50;98.10;;;;;;5089548;28;20629;-79
2023/08/19 02:48:27;;;;;;;3.20;2.90;;;20.50;98.50;;;;;;5090683;28;20653;-79
2023/08/19 02:50:56;;;;;;;4.20;3.80;;;20.50;98.00;;;;;;5088855;28;21170;-79
2023/08/19 02:53:24;;;;;;;3.57;3.27;;;20.50;97.90;;;;;;5089912;28;21220;-79
2023/08/19 02:55:53;;;;;;;4.33;2.97;;;20.50;98.30;;;;;;5089583;28;20636;-79
2023/08/19 02:58:20;;;;;;;3.03;2.83;;;20.50;97.90;;;;;;5089147;28;20616;-79
2023/08/19 03:00:48;;;;;;;3.20;2.73;;;20.50;98.00;;;;;;5089499;28;20653;-78
2023/08/19 03:03:16;;;;;;;3.27;2.80;;;20.50;98.70;;;;;;5088938;28;20632;-79
2023/08/19 03:05:43;;;;;;;4.60;2.90;;;20.50;98.50;;;;;;5089663;28;20632;-78
2023/08/19 03:08:12;;;;;;;5.97;3.47;;;20.50;98.10;;;;;;5089867;28;20775;-78
2023/08/19 03:10:41;;;;;;;3.00;2.80;;;20.50;98.00;;;;;;5089138;28;21540;-79
2023/08/19 03:13:09;;;;;;;5.90;2.97;;;20.50;98.30;;;;;;5088817;28;20624;-79
2023/08/19 03:15:38;;;;;;;3.60;3.33;;;20.50;97.90;;;;;;5089216;28;20671;-79
2023/08/19 03:18:05;;;;;;;4.27;3.70;;;20.50;98.60;;;;;;5089141;28;20636;-80
2023/08/19 03:20:33;;;;;;;4.00;3.40;;;20.40;98.80;;;;;;5088348;28;21191;-79
2023/08/19 03:22:59;;;;;;;3.37;3.10;;;20.40;98.30;;;;;;5089759;28;20625;-79
2023/08/19 03:25:27;;;;;;;3.50;3.20;;;20.40;98.10;;;;;;5088859;28;20632;-79
2023/08/19 03:27:54;;;;;;;5.40;3.20;;;20.40;98.60;;;;;;5089106;28;21499;-78
2023/08/19 03:30:21;;;;;;;3.20;2.90;;;20.40;98.30;;;;;;5087627;28;20630;-79
2023/08/19 03:32:48;;;;;;;3.20;2.90;;;20.30;98.10;;;;;;5089066;28;20635;-78
2023/08/19 03:35:15;;;;;;;4.13;3.37;;;20.20;99.30;;;;;;5087744;28;21089;-78
2023/08/19 03:37:42;;;;;;;4.70;3.77;;;20.10;99.70;;;;;;5089007;28;20625;-79
2023/08/19 03:40:10;;;;;;;3.40;3.10;;;20.10;99.50;;;;;;5088362;28;20737;-79
2023/08/19 03:42:38;;;;;;;9.77;3.47;;;20.10;99.30;;;;;;5088818;28;20637;-79
2023/08/19 03:45:06;;;;;;;3.87;3.53;;;20.10;99.70;;;;;;5089263;28;21575;-78
2023/08/19 03:47:33;;;;;;;3.60;3.07;;;20.00;99.90;;;;;;5088333;28;20637;-79
2023/08/19 03:49:59;;;;;;;4.73;3.47;;;19.90;99.90;;;;;;5088280;28;20659;-78
2023/08/19 03:52:26;;;;;;;4.27;3.10;;;19.80;99.90;;;;;;5087665;28;20632;-79
2023/08/19 03:54:53;;;;;;;4.13;3.83;;;19.80;99.90;;;;;;5088518;28;20635;-79
2023/08/19 03:57:20;;;;;;;3.80;3.50;;;19.80;99.90;;;;;;5088860;28;21171;-78
2023/08/19 03:59:51;;;;;;;3.30;3.07;;;19.80;99.90;;;;;;5088607;28;20952;-78
2023/08/19 04:02:18;;;;;;;4.17;3.77;;;19.90;99.90;;;;;;5089186;28;20630;-78
2023/08/19 04:04:58;;;;;;;4.70;3.90;;;19.90;99.90;;;;;;5088473;28;20992;-78
2023/08/19 04:07:25;;;;;;;7.20;4.00;;;19.90;99.90;;;;;;5087493;28;20636;-79
2023/08/19 04:09:55;;;;;;;2.80;2.60;;;19.90;99.90;;;;;;5087740;28;20661;-78
2023/08/19 04:12:22;;;;;;;4.27;3.87;;;19.90;99.80;;;;;;5088380;28;20677;-78
2023/08/19 04:14:50;;;;;;;3.80;3.17;;;19.90;99.80;;;;;;5087899;28;20624;-79
2023/08/19 04:17:17;;;;;;;4.60;3.20;;;19.90;99.90;;;;;;5087817;28;21455;-79
2023/08/19 04:19:44;;;;;;;7.90;3.40;;;19.90;99.90;;;;;;5086777;28;20875;-78
2023/08/19 04:22:12;;;;;;;6.10;3.30;;;19.90;99.90;;;;;;5088245;28;20620;-76
2023/08/19 04:24:39;;;;;;;4.27;3.87;;;19.80;99.90;;;;;;5087716;28;21184;-80
2023/08/19 04:27:06;;;;;;;3.87;3.57;;;19.80;99.90;;;;;;5088117;28;20617;-80
2023/08/19 04:29:33;;;;;;;4.10;3.73;;;19.90;99.90;;;;;;5087412;28;21246;-79
2023/08/19 04:32:02;;;;;;;6.10;3.70;;;19.90;99.90;;;;;;5087692;28;20987;-79
2023/08/19 04:34:29;;;;;;;6.37;3.27;;;19.90;99.80;;;;;;5088538;28;21149;-80
2023/08/19 04:36:56;;;;;;;3.70;3.40;;;19.90;99.50;;;;;;5087267;28;20636;-79
2023/08/19 04:39:23;;;;;;;3.57;3.27;;;19.90;99.20;;;;;;5087828;28;20629;-79
2023/08/19 04:41:50;;;;;;;10.53;3.63;;;20.00;99.40;;;;;;5088526;28;20632;-80
2023/08/19 04:44:17;;;;;;;3.50;3.17;;;20.00;99.50;;;;;;5088626;28;20632;-79
2023/08/19 04:46:44;;;;;;;4.70;3.20;;;20.10;98.90;;;;;;5086975;28;20624;-78
2023/08/19 04:49:12;;;;;;;3.70;3.03;;;20.10;98.70;;;;;;5087948;28;20656;-78
2023/08/19 04:51:39;;;;;;;2.67;2.47;;;20.10;98.70;;;;;;5087225;28;20983;-78
2023/08/19 04:54:07;;;;;;;6.80;3.23;;;20.20;98.60;;;;;;5087626;28;20621;-78
2023/08/19 04:56:34;;;;;;;4.03;3.17;;;20.20;98.50;;;;;;5087099;28;20637;-78
2023/08/19 04:59:01;;;;;;;2.97;2.67;;;20.20;98.50;;;;;;5086835;28;21208;-78
2023/08/19 05:01:27;;;;;;;3.77;3.23;;;20.20;98.90;;;;;;5087571;28;20640;-79
2023/08/19 05:03:54;;;;;;;5.03;2.80;;;20.10;99.10;;;;;;5087028;28;20632;-78
2023/08/19 05:06:23;;;;;;;2.77;2.57;;;20.20;99.00;;;;;;5087448;28;20621;-78
2023/08/19 05:08:50;;;;;;;3.93;3.63;;;20.20;99.30;;;;;;5086037;28;20668;-78
2023/08/19 05:11:16;;;;;;;3.47;3.10;;;20.10;99.50;;;;;;5086718;28;20625;-78
2023/08/19 05:13:43;;;;;;;2.77;2.50;;;20.10;99.90;;;;;;5087173;28;20638;-79
2023/08/19 05:16:10;;;;;;;3.27;2.97;;;20.00;99.90;;;;;;5086228;28;20628;-77
2023/08/19 05:18:37;;;;;;;3.30;2.97;;;20.10;99.90;;;;;;5087822;28;20984;-78
2023/08/19 05:21:04;;;;;;;4.13;3.70;;;20.20;99.90;;;;;;5086340;28;20628;-78
2023/08/19 05:23:32;;;;;;;4.00;3.30;;;20.30;99.90;;;;;;5086721;28;20665;-78
2023/08/19 05:25:58;;;;;;;5.57;3.03;;;20.40;99.60;;;;;;5086603;28;20635;-78
2023/08/19 05:28:25;;;;;;;4.47;3.33;;;20.50;99.20;;;;;;5085531;28;20634;-80
2023/08/19 05:30:52;;;;;;;3.30;3.00;;;20.70;98.90;;;;;;5084657;28;20778;-81
2023/08/19 05:33:19;;;;;;;4.87;4.07;;;20.70;98.80;;;;;;5085239;28;21618;-80
2023/08/19 05:35:46;;;;;;;2.87;2.67;;;20.80;98.50;;;;;;5086171;28;20640;-80
2023/08/19 05:38:13;;;;;;;3.67;3.10;;;20.90;98.20;;;;;;5086399;28;20636;-80
2023/08/19 05:40:41;;;;;;;3.63;3.30;;;21.00;97.80;;;;;;5086266;28;20630;-81
2023/08/19 05:43:07;;;;;;;5.47;2.50;;;21.00;97.90;;;;;;5084759;28;20964;-81
2023/08/19 05:45:34;;;;;;;5.30;3.03;;;21.10;97.90;;;;;;5087732;28;20647;-80
2023/08/19 05:48:01;;;;;;;3.63;3.13;;;21.20;98.00;;;;;;5086933;28;20619;-80
2023/08/19 05:50:28;;;;;;;5.50;3.27;;;21.20;98.40;;;;;;5086175;28;20662;-80
2023/08/19 05:52:55;;;;;;;3.70;2.90;;;21.10;99.10;;;;;;5089012;28;20634;-80
2023/08/19 05:55:21;;;;;;;4.20;3.13;;;21.10;98.60;;;;;;5090020;28;20629;-80
2023/08/19 05:57:49;;;;;;;2.80;2.60;;;21.20;98.40;;;;;;5090846;28;20634;-80
2023/08/19 06:00:16;;;;;;;2.67;2.47;;;21.30;97.30;;;;;;5090417;28;21175;-81
2023/08/19 06:02:43;;;;;;;2.90;2.70;;;21.50;96.70;;;;;;5091026;28;20631;-85
2023/08/19 06:05:11;;;;;;;4.55;3.25;;;21.60;96.60;;;;;;5089615;28;20745;-86
2023/08/19 06:07:38;;;;;;;4.63;4.00;;;21.70;96.30;;;;;;5090529;28;20280;-88
2023/08/19 06:10:05;;;;;;;8.63;3.20;;;21.70;96.30;;;;;;5089526;28;20651;-81
2023/08/19 06:12:32;;;;;;;3.95;3.40;;;21.80;96.30;;;;;;5090099;28;20737;-78
2023/08/19 06:15:00;;;;;;;9.70;3.23;;;21.90;96.50;;;;;;5090678;28;20210;-78
2023/08/19 06:17:26;;;;;;;4.10;3.30;;;22.00;96.00;;;;;;5090574;28;20618;-78
2023/08/19 06:19:53;;;;;;;4.30;2.90;;;22.10;96.30;;;;;;5089817;28;21214;-79
2023/08/19 06:22:20;;;;;;;5.27;4.23;;;22.20;96.10;;;;;;5090040;28;20841;-79
2023/08/19 06:24:47;;;;;;;3.27;2.97;;;22.30;96.10;;;;;;5083849;28;20627;-78
2023/08/19 06:27:14;;;;;;;4.90;4.00;;;22.40;96.20;;;;;;5089248;28;20635;-78
2023/08/19 06:29:40;;;;;;;3.20;2.90;;;22.50;95.90;;;;;;5089104;28;21051;-78
2023/08/19 06:32:11;;;;;;;3.67;3.37;;;22.60;95.70;;;;;;5089819;28;20630;-79
2023/08/19 06:34:38;;;;;;;4.77;4.10;;;22.70;95.40;;;;;;5088765;28;21210;-79
2023/08/19 06:37:06;;;;;;;4.00;3.60;;;22.80;95.00;;;;;;5087650;28;20637;-75
2023/08/19 06:39:36;;;;;;;8.13;3.90;;;22.90;94.80;;;;;;5087541;28;20659;-81
2023/08/19 06:42:05;;;;;;;4.90;3.37;;;23.00;94.50;;;;;;5088907;28;20629;-82
2023/08/19 06:44:34;;;;;;;4.50;4.00;;;23.00;93.90;;;;;;5087036;28;20635;-81
2023/08/19 06:47:02;;;;;;;4.30;3.90;;;23.20;94.10;;;;;;5086326;28;20718;-87
2023/08/19 06:49:31;;;;;;;4.13;3.37;;;23.30;94.00;;;;;;5087464;28;20684;-86
2023/08/19 06:51:59;;;;;;;3.40;3.10;;;23.40;93.80;;;;;;5087769;28;20629;-84
2023/08/19 06:54:26;;;;;;;3.93;3.53;;;23.50;93.80;;;;;;5085589;28;20632;-83
2023/08/19 06:56:58;;;;;;;5.40;3.53;;;23.60;93.70;;;;;;5086672;28;20657;-84
2023/08/19 06:59:30;;;;;;;3.70;3.40;;;23.60;94.20;;;;;;5086934;28;20876;-83
2023/08/19 07:02:00;;;;;;;3.50;3.20;;;23.80;93.80;;;;;;5088873;28;21224;-82
2023/08/19 07:04:30;;;;;;;6.77;3.20;;;23.90;93.60;;;;;;5089425;28;20637;-83
2023/08/19 07:06:58;;;;;;;8.03;4.40;;;24.00;94.20;;;;;;5088092;28;21220;-80
2023/08/19 07:09:26;;;;;;;5.87;3.43;;;24.10;94.00;;;;;;5087360;28;20630;-79
2023/08/19 07:11:54;;;;;;;5.93;3.27;;;24.20;93.80;;;;;;5087451;28;20637;-78
2023/08/19 07:14:23;;;;;;;5.00;3.73;;;24.40;93.30;;;;;;5088195;28;20642;-77
2023/08/19 07:16:51;;;;;;;4.20;3.33;;;24.40;92.80;;;;;;5087478;28;20631;-75
2023/08/19 07:19:26;;;;;;;4.33;3.60;;;24.60;93.00;;;;;;5087447;28;20654;-76
2023/08/19 07:21:56;;;;;;;6.53;3.40;;;24.60;92.60;;;;;;5087751;28;20985;-80
2023/08/19 07:24:23;;;;;;;8.67;3.57;;;24.80;92.40;;;;;;5087553;28;20634;-74
2023/08/19 07:26:52;;;;;;;7.40;4.60;;;24.80;92.60;;;;;;5084555;28;20641;-87
2023/08/19 07:29:19;;;;;;;4.20;3.70;;;25.00;92.50;;;;;;5086463;28;20757;-86
2023/08/19 07:31:48;;;;;;;3.70;3.40;;;25.10;92.20;;;;;;5087470;28;20618;-85
2023/08/19 07:34:15;;;;;;;4.77;3.90;;;25.20;92.00;;;;;;5088172;28;21901;-84
2023/08/19 07:36:43;;;;;;;7.40;3.80;;;25.20;91.90;;;;;;5087961;28;20774;-86
2023/08/19 07:39:11;;;;;;;7.53;4.40;;;25.20;91.60;;;;;;5087226;28;20783;-84
2023/08/19 07:41:39;;;;;;;6.63;4.67;;;25.40;91.70;;;;;;5088517;28;20958;-84
2023/08/19 07:44:06;;;;;;;3.40;3.20;;;25.50;91.50;;;;;;5089070;28;20636;-86
2023/08/19 07:46:33;;;;;;;4.47;4.07;;;25.60;91.00;;;;;;5088047;28;20711;-86
2023/08/19 07:49:00;;;;;;;4.00;3.70;;;25.70;91.30;;;;;;5086740;28;21356;-85
2023/08/19 07:51:27;;;;;;;8.13;3.97;;;25.80;91.00;;;;;;5084134;28;20688;-85
2023/08/19 07:53:54;;;;;;;4.13;3.50;;;25.90;90.40;;;;;;5086708;28;20617;-85
2023/08/19 07:56:22;;;;;;;6.47;4.03;;;26.00;90.20;;;;;;5086957;28;20640;-85
2023/08/19 07:58:49;;;;;;;3.93;3.60;;;26.10;90.20;;;;;;5087780;28;21314;-85
2023/08/19 08:01:16;;;;;;;3.83;3.40;;;26.20;89.20;;;;;;5087623;28;20682;-85
2023/08/19 08:03:43;;;;;;;4.53;3.50;;;26.30;87.90;;;;;;5087659;28;20736;-84
2023/08/19 08:06:10;;;;;;;4.03;3.47;;;26.40;86.10;;;;;;5088094;28;20664;-85
2023/08/19 08:08:37;;;;;;;3.67;3.37;;;26.40;87.20;;;;;;5080409;28;21323;-76
2023/08/19 08:11:10;;;;;;;6.47;3.80;;;26.60;84.20;;;;;;5077542;28;20628;-82
2023/08/19 08:13:38;;;;;;;3.30;3.03;;;26.60;83.90;;;;;;5087165;28;20633;-81
2023/08/19 08:16:05;;;;;;;3.50;3.20;;;26.70;83.00;;;;;;5083909;28;20630;-82
2023/08/19 08:18:38;;;;;;;4.07;3.67;;;26.90;82.00;;;;;;5086881;28;20703;-77
2023/08/19 08:21:05;;;;;;;3.57;3.00;;;26.90;82.50;;;;;;5085766;28;20648;-78
2023/08/19 08:23:32;;;;;;;4.70;3.90;;;27.00;82.80;;;;;;5085468;28;20976;-76
2023/08/19 08:25:59;;;;;;;6.50;3.70;;;27.00;80.70;;;;;;5087127;28;21187;-78
2023/08/19 08:28:27;;;;;;;4.10;3.47;;;27.20;80.60;;;;;;5081953;28;20746;-78
2023/08/19 08:30:55;;;;;;;4.23;3.40;;;27.30;80.70;;;;;;5085961;28;20234;-78
2023/08/19 08:33:22;;;;;;;4.43;2.80;;;27.40;81.30;;;;;;5086553;28;21432;-77
2023/08/19 08:35:49;;;;;;;4.50;3.70;;;27.50;78.70;;;;;;5087030;28;21857;-77
2023/08/19 08:38:16;;;;;;;3.80;3.50;;;27.60;80.40;;;;;;5086788;28;20814;-77
2023/08/19 08:40:42;;;;;;;5.73;3.77;;;27.70;78.30;;;;;;5086280;28;20226;-76
2023/08/19 08:43:09;;;;;;;4.17;3.77;;;27.80;77.30;;;;;;5088080;28;20632;-76
2023/08/19 08:45:37;;;;;;;3.57;3.27;;;27.90;79.10;;;;;;5085468;28;20646;-76
2023/08/19 08:48:07;;;;;;;3.90;3.13;;;27.90;75.40;;;;;;5080201;28;20628;-76
2023/08/19 08:50:34;;;;;;;4.57;3.70;;;28.10;75.80;;;;;;5085609;28;20636;-76
2023/08/19 08:53:01;;;;;;;7.90;3.43;;;28.20;75.80;;;;;;5087717;28;20644;-76
2023/08/19 08:55:28;;;;;;;3.73;3.40;;;28.30;76.60;;;;;;5087134;28;20620;-76
2023/08/19 08:57:55;;;;;;;7.20;4.00;;;28.30;76.50;;;;;;5085994;28;20629;-76
2023/08/19 09:00:22;;;;;;;3.97;3.50;;;28.40;75.90;;;;;;5085557;28;20629;-76
2023/08/19 09:02:51;;;;;;;2.97;2.73;;;28.50;73.10;;;;;;5085604;28;20643;-76
2023/08/19 09:05:20;;;;;;;3.50;3.20;;;28.60;73.40;;;;;;5085415;28;20632;-76
2023/08/19 09:07:49;;;;;;;5.93;2.93;;;28.80;74.40;;;;;;5084035;28;20836;-72
2023/08/19 09:10:20;;;;;;;3.70;3.00;;;28.90;72.50;;;;;;5085295;28;21059;-68
2023/08/19 09:12:52;;;;;;;3.10;2.80;;;28.90;75.00;;;;;;5085015;28;20624;-76
2023/08/19 09:15:20;;;;;;;5.63;3.63;;;29.00;74.10;;;;;;5079070;28;20696;-76
2023/08/19 09:17:47;;;;;;;3.30;3.00;;;29.00;72.90;;;;;;5081045;28;20637;-76
2023/08/19 09:20:18;;;;;;;4.33;3.30;;;29.10;72.60;;;;;;5083144;28;21192;-82
2023/08/19 09:22:46;;;;;;;5.70;3.60;;;29.20;71.90;;;;;;5086474;28;20636;-76
2023/08/19 09:25:15;;;;;;;5.20;3.93;;;29.40;72.90;;;;;;5085489;28;22062;-79
2023/08/19 09:27:42;;;;;;;3.90;3.50;;;29.50;71.70;;;;;;5085243;28;20625;-74
2023/08/19 09:30:13;;;;;;;4.63;3.10;;;29.50;73.40;;;;;;5084575;28;20626;-80
2023/08/19 09:32:41;;;;;;;3.60;3.30;;;29.60;72.90;;;;;;5085981;28;20628;-76
2023/08/19 09:35:11;;;;;;;3.23;3.00;;;29.70;72.30;;;;;;5086131;28;20636;-73
2023/08/19 09:37:41;;;;;;;4.37;3.50;;;29.90;71.30;;;;;;5085107;28;20735;-73
2023/08/19 09:40:15;;;;;;;3.47;3.10;;;29.80;69.40;;;;;;5085666;28;20655;-74
2023/08/19 09:42:46;;;;;;;3.80;3.50;;;30.00;70.50;;;;;;5084651;28;20786;-77
2023/08/19 09:45:18;;;;;;;5.07;3.30;;;30.00;70.10;;;;;;5087321;28;20635;-73
2023/08/19 09:47:47;;;;;;;3.93;3.53;;;30.10;69.00;;;;;;5085324;28;20616;-73
2023/08/19 09:50:14;;;;;;;5.10;3.40;;;30.20;67.40;;;;;;5084569;28;20954;-73
2023/08/19 09:52:41;;;;;;;4.67;3.60;;;30.20;68.50;;;;;;5085294;28;20623;-73
2023/08/19 09:55:09;;;;;;;3.67;3.37;;;30.40;66.60;;;;;;5085851;28;21201;-73
2023/08/19 09:57:36;;;;;;;3.50;3.30;;;30.50;70.60;;;;;;5083409;28;20628;-78
2023/08/19 10:00:05;;;;;;;5.83;2.70;;;30.40;67.40;;;;;;5081887;28;21237;-78
2023/08/19 10:02:33;;;;;;;4.07;3.77;;;30.40;66.60;;;;;;5082789;28;20659;-78
2023/08/19 10:05:00;;;;;;;4.47;3.67;;;30.60;67.10;;;;;;5081319;28;21254;-78
2023/08/19 10:07:31;;;;;;;4.50;4.00;;;30.60;66.60;;;;;;5081379;28;20926;-78
2023/08/19 10:10:01;;;;;;;4.13;3.83;;;30.70;65.80;;;;;;5080503;28;20616;-78
2023/08/19 10:12:31;;;;;;;4.07;3.40;;;30.90;67.00;;;;;;5084669;28;20639;-78
2023/08/19 10:14:59;;;;;;;4.17;3.00;;;30.90;63.50;;;;;;5086578;28;20659;-81
2023/08/19 10:17:28;;;;;;;3.10;2.90;;;31.10;66.40;;;;;;5084514;28;20634;-82
2023/08/19 10:20:00;;;;;;;4.17;3.53;;;31.40;63.00;;;;;;5084030;28;20781;-81
2023/08/19 10:22:31;;;;;;;4.07;3.60;;;31.40;64.70;;;;;;5084498;28;20727;-79
2023/08/19 10:24:59;;;;;;;3.40;3.03;;;31.40;64.20;;;;;;5086264;28;20623;-81
2023/08/19 10:27:26;;;;;;;5.03;3.63;;;31.50;64.30;;;;;;5086322;28;20666;-80
2023/08/19 10:29:59;;;;;;;3.73;3.47;;;31.50;61.50;;;;;;5085477;28;20629;-81
2023/08/19 10:32:26;;;;;;;3.63;3.40;;;31.70;60.50;;;;;;5085938;28;20777;-82
2023/08/19 10:35:04;;;;;;;3.30;3.00;;;31.90;59.70;;;;;;5085549;28;20626;-83
2023/08/19 10:37:31;;;;;;;4.50;4.10;;;31.90;58.50;;;;;;5086405;28;20677;-84
2023/08/19 10:40:08;;;;;;;6.77;3.43;;;31.90;59.70;;;;;;5088621;28;20628;-84
2023/08/19 10:42:35;;;;;;;4.22;3.50;;;32.00;60.00;;;;;;5087714;28;21279;-84
2023/08/19 10:45:05;;;;;;;7.70;4.10;;;32.00;61.20;;;;;;5089140;28;20226;-80
2023/08/19 10:47:33;;;;;;;4.93;3.30;;;32.10;59.10;;;;;;5089864;28;21065;-80
2023/08/19 10:50:04;;;;;;;4.97;3.50;;;32.30;59.00;;;;;;5088196;28;20756;-80
2023/08/19 10:52:31;;;;;;;4.10;3.00;;;32.40;58.60;;;;;;5089108;28;20634;-80
2023/08/19 10:54:59;;;;;;;3.27;2.70;;;32.60;58.20;;;;;;5089929;28;20627;-80
2023/08/19 10:57:27;;;;;;;3.63;2.70;;;32.70;58.90;;;;;;5088938;28;20631;-80
2023/08/19 10:59:57;;;;;;;3.93;3.53;;;32.80;56.00;;;;;;5087501;28;20739;-79
2023/08/19 11:02:26;;;;;;;4.37;3.10;;;33.00;55.30;;;;;;5089988;28;20616;-80
2023/08/19 11:04:54;;;;;;;3.60;3.10;;;33.00;55.80;;;;;;5089608;28;21206;-77
2023/08/19 11:07:22;;;;;;;3.27;2.93;;;33.20;54.10;;;;;;5089380;28;21204;-77
2023/08/19 11:09:50;;;;;;;4.40;3.83;;;33.40;54.80;;;;;;5088797;28;20624;-77
2023/08/19 11:12:19;;;;;;;3.67;3.33;;;33.50;54.00;;;;;;5087679;28;20624;-76
2023/08/19 11:14:47;;;;;;;6.20;3.03;;;33.70;53.60;;;;;;5088473;28;21517;-77
2023/08/19 11:17:15;;;;;;;6.50;3.60;;;33.90;55.10;;;;;;5089211;28;21177;-77
2023/08/19 11:19:43;;;;;;;3.50;3.20;;;33.90;55.10;;;;;;5088753;28;20630;-79
2023/08/19 11:22:13;;;;;;;3.50;3.20;;;34.00;55.10;;;;;;5088076;28;20749;-77
2023/08/19 11:24:40;;;;;;;3.50;3.30;;;34.20;51.90;;;;;;5088426;28;20635;-78
2023/08/19 11:27:08;;;;;;;5.07;3.13;;;34.40;53.10;;;;;;5088786;28;20635;-79
2023/08/19 11:29:37;;;;;;;3.27;3.00;;;34.50;53.10;;;;;;5088108;28;20628;-79
2023/08/19 11:32:05;;;;;;;3.40;3.10;;;34.70;52.40;;;;;;5089294;28;20680;-78
2023/08/19 11:34:33;;;;;;;4.10;3.80;;;34.90;51.90;;;;;;5089116;28;20630;-79
2023/08/19 11:37:05;;;;;;;4.80;3.33;;;35.20;51.00;;;;;;5088066;28;20628;-78
2023/08/19 11:39:33;;;;;;;5.73;3.43;;;35.30;50.80;;;;;;5087168;28;20647;-79
2023/08/19 11:42:00;;;;;;;4.93;3.43;;;35.50;52.90;;;;;;5088430;28;20655;-78
2023/08/19 11:44:27;;;;;;;2.90;2.67;;;35.60;49.60;;;;;;5089305;28;20624;-79
2023/08/19 11:46:56;;;;;;;3.60;3.30;;;35.90;51.10;;;;;;5088790;28;21250;-80
2023/08/19 11:49:24;;;;;;;4.20;3.90;;;36.10;50.70;;;;;;5087836;28;20620;-79
2023/08/19 11:51:51;;;;;;;3.13;2.90;;;36.30;51.40;;;;;;5087989;28;21422;-79
2023/08/19 11:54:19;;;;;;;3.70;3.30;;;36.50;49.50;;;;;;5078857;28;21750;-81
2023/08/19 11:56:48;;;;;;;2.97;2.77;;;36.70;50.60;;;;;;5085646;28;21090;-87
2023/08/19 11:59:15;;;;;;;4.43;3.43;;;36.90;50.00;;;;;;5085007;28;20624;-80
2023/08/19 12:01:42;;;;;;;3.47;3.17;;;37.50;49.30;;;;;;5088700;28;20736;-81
2023/08/19 12:04:15;;;;;;;3.30;3.00;;;38.10;48.40;;;;;;5087000;28;21216;-81
2023/08/19 12:06:47;;;;;;;3.35;2.95;;;38.60;46.60;;;;;;5088387;28;20205;-82
2023/08/19 12:09:31;;;;;;;3.58;3.38;;;39.30;47.90;;;;;;5086650;28;20229;-80
2023/08/19 12:12:02;;;;;;;4.70;3.63;;;40.10;47.40;;;;;;5087343;28;20267;-80
2023/08/19 12:14:29;;;;;;;3.25;3.03;;;40.70;46.50;;;;;;5086158;28;20558;-87
2023/08/19 12:16:55;;;;;;;2.60;2.50;;;40.90;45.70;;;;;;5088055;28;20745;-86
2023/08/19 12:19:22;;;;;;;3.75;3.47;;;40.10;45.70;;;;;;5087386;28;20206;-87
2023/08/19 12:21:49;;;;;;;3.53;3.22;;;39.60;45.80;;;;;;5087614;28;20421;-87
2023/08/19 12:24:16;;;;;;;3.35;3.15;;;38.80;47.90;;;;;;5089010;28;20296;-87
2023/08/19 12:26:44;;;;;;;3.03;2.72;;;38.70;47.20;;;;;;5088419;28;20953;-87
2023/08/19 12:29:11;;;;;;;5.03;3.40;;;38.60;47.00;;;;;;5087614;28;20205;-87
2023/08/19 12:31:38;;;;;;;3.70;3.45;;;38.20;46.00;;;;;;5088032;28;20221;-88
2023/08/19 12:34:05;;;;;;;5.00;3.40;;;37.50;48.70;;;;;;5087727;28;20284;-86
2023/08/19 12:36:31;;;;;;;4.13;3.75;;;37.00;46.50;;;;;;5087843;28;21814;-87
2023/08/19 12:38:58;;;;;;;3.38;3.17;;;37.80;48.60;;;;;;5088322;28;20205;-87
2023/08/19 12:41:25;;;;;;;3.58;3.28;;;38.40;46.70;;;;;;5088486;28;20403;-86
2023/08/19 12:43:53;;;;;;;5.83;3.57;;;38.10;46.60;;;;;;5087148;28;20212;-86
2023/08/19 12:46:21;;;;;;;3.80;3.40;;;37.80;45.90;;;;;;5087675;28;20197;-87
2023/08/19 12:48:48;;;;;;;3.37;3.07;;;37.50;45.80;;;;;;5087110;28;20212;-84
2023/08/19 12:51:17;;;;;;;3.60;3.30;;;37.10;47.10;;;;;;5087674;28;20225;-86